Time;durP1;ratioP1;P1;durP2;ratioP2;P2;SDS_P1;SDS_P2;PMS_P1;PMS_P2;Temp;Humidity;BMP_temperature;BMP_pressure;BME280_temperature;BME280_humidity;BME280_pressure;Samples;Min_cycle;Max_cycle;Signal;HPM_P1;HPM_P2
2022/02/06 00:00:20;;;;;;;11.57;6.45;;;3.40;77.90;;;;;;5160944;27;20031;-39
2022/02/06 00:02:49;;;;;;;14.77;6.45;;;3.40;77.60;;;;;;5161164;27;20030;-34
2022/02/06 00:05:15;;;;;;;11.93;6.22;;;3.40;77.60;;;;;;5160679;27;20040;-39
2022/02/06 00:07:41;;;;;;;12.77;6.53;;;3.40;77.50;;;;;;5161016;27;20037;-39
2022/02/06 00:10:07;;;;;;;14.15;6.70;;;3.40;77.30;;;;;;5160047;27;20329;-40
2022/02/06 00:12:34;;;;;;;11.52;6.28;;;3.40;77.10;;;;;;5160928;27;20471;-34
2022/02/06 00:15:00;;;;;;;12.50;5.82;;;3.50;76.80;;;;;;5160494;27;20023;-40
2022/02/06 00:17:29;;;;;;;12.27;5.55;;;3.50;76.30;;;;;;5161087;27;20030;-34
2022/02/06 00:19:54;;;;;;;14.18;6.57;;;3.50;76.10;;;;;;5160338;27;20034;-34
2022/02/06 00:22:35;;;;;;;9.88;5.90;;;3.50;75.80;;;;;;5160794;27;20031;-34
2022/02/06 00:30:21;;;;;;;12.15;5.40;;;3.50;75.30;;;;;;5160427;27;20071;-39
2022/02/06 00:32:52;;;;;;;13.00;5.57;;;3.50;75.40;;;;;;5160631;27;20359;-34
2022/02/06 00:43:21;;;;;;;11.23;4.97;;;3.50;75.20;;;;;;5160588;27;20061;-34
2022/02/06 00:45:47;;;;;;;11.68;5.60;;;3.50;75.10;;;;;;5159213;27;20379;-34
2022/02/06 00:48:14;;;;;;;8.43;4.63;;;3.50;74.90;;;;;;5160368;27;20050;-34
2022/02/06 00:50:45;;;;;;;9.75;5.70;;;3.50;74.90;;;;;;5159513;27;20442;-34
2022/02/06 00:53:16;;;;;;;10.90;4.93;;;3.50;74.70;;;;;;5160266;27;20474;-39
2022/02/06 00:55:43;;;;;;;10.27;4.88;;;3.60;74.70;;;;;;5159801;27;20342;-39
2022/02/06 00:58:08;;;;;;;11.82;5.05;;;3.60;74.50;;;;;;5160230;27;20030;-34
2022/02/06 01:00:34;;;;;;;8.65;5.00;;;3.60;74.30;;;;;;5159613;27;20031;-35
2022/02/06 01:03:00;;;;;;;10.73;4.57;;;3.60;74.30;;;;;;5160092;27;20294;-34
2022/02/06 01:05:25;;;;;;;10.40;5.15;;;3.70;74.40;;;;;;5159349;27;20038;-40
2022/02/06 01:07:53;;;;;;;11.27;5.63;;;3.70;74.20;;;;;;5159896;27;20062;-34
2022/02/06 01:10:19;;;;;;;14.30;4.53;;;3.70;73.90;;;;;;5159129;27;20027;-40
2022/02/06 01:12:53;;;;;;;16.98;5.22;;;3.80;73.90;;;;;;5159785;27;20410;-34
2022/02/06 01:15:23;;;;;;;15.18;5.45;;;3.80;73.70;;;;;;5159037;27;20047;-34
2022/02/06 01:18:03;;;;;;;15.23;5.13;;;3.80;73.50;;;;;;5159799;27;20027;-35
2022/02/06 01:20:35;;;;;;;10.45;5.68;;;3.80;73.40;;;;;;5159359;27;20030;-39
2022/02/06 01:23:06;;;;;;;11.35;5.50;;;3.80;73.20;;;;;;5159730;27;20043;-34
2022/02/06 01:25:56;;;;;;;9.63;5.20;;;3.80;73.10;;;;;;5159097;27;20034;-34
2022/02/06 01:28:32;;;;;;;9.05;4.55;;;3.80;73.00;;;;;;5159496;27;20031;-39
2022/02/06 01:31:09;;;;;;;10.05;5.15;;;3.80;73.10;;;;;;5158770;27;20030;-39
2022/02/06 01:33:41;;;;;;;10.15;5.03;;;3.80;73.10;;;;;;5159425;27;20084;-39
2022/02/06 01:36:22;;;;;;;10.95;5.28;;;3.80;72.90;;;;;;5159076;27;20109;-34
2022/02/06 01:39:05;;;;;;;8.68;4.45;;;3.80;72.70;;;;;;5158907;27;20031;-34
2022/02/06 01:41:36;;;;;;;10.30;4.85;;;3.80;72.70;;;;;;5158775;27;20033;-38
2022/02/06 01:44:14;;;;;;;10.15;4.88;;;3.70;72.60;;;;;;5158943;27;20030;-34
2022/02/06 02:18:22;;;;;;;9.90;4.38;;;3.80;71.90;;;;;;5158774;27;20027;-40
2022/02/06 02:45:11;;;;;;;11.95;4.55;;;3.90;71.10;;;;;;5157494;27;20073;-35
2022/02/06 02:47:39;;;;;;;7.43;4.20;;;3.90;71.10;;;;;;5157938;27;20042;-34
2022/02/06 02:50:13;;;;;;;10.70;4.75;;;3.90;71.20;;;;;;5157513;27;20422;-34
2022/02/06 02:55:28;;;;;;;9.25;4.82;;;4.00;71.20;;;;;;5157273;27;20311;-34
2022/02/06 03:00:41;;;;;;;9.43;4.38;;;3.90;71.10;;;;;;5157428;27;20486;-34
2022/02/06 03:05:40;;;;;;;9.88;4.47;;;4.00;71.20;;;;;;5157276;27;20486;-39
2022/02/06 03:08:07;;;;;;;9.77;4.47;;;4.00;71.10;;;;;;5157429;27;20430;-40
2022/02/06 03:10:34;;;;;;;7.97;4.43;;;4.00;71.00;;;;;;5157107;27;20445;-34
2022/02/06 03:13:03;;;;;;;11.55;4.78;;;4.00;71.00;;;;;;5157839;27;20322;-35
2022/02/06 03:15:45;;;;;;;8.90;4.40;;;4.00;70.80;;;;;;5157442;27;20093;-39
2022/02/06 03:18:18;;;;;;;8.27;4.45;;;4.00;70.70;;;;;;5157898;27;20042;-39
2022/02/06 03:20:45;;;;;;;8.02;4.00;;;4.00;70.70;;;;;;5157372;27;20031;-39
2022/02/06 03:23:12;;;;;;;8.43;4.47;;;4.10;70.70;;;;;;5157771;27;20418;-40
2022/02/06 03:25:46;;;;;;;8.48;4.30;;;4.10;70.70;;;;;;5157230;27;20491;-35
2022/02/06 03:28:12;;;;;;;9.20;4.82;;;4.10;70.70;;;;;;5157966;27;20399;-39
2022/02/06 03:30:37;;;;;;;8.32;3.95;;;4.10;70.60;;;;;;5157172;27;20033;-40
2022/02/06 03:33:03;;;;;;;7.22;4.18;;;4.10;70.60;;;;;;5157534;27;20466;-34
2022/02/06 03:35:29;;;;;;;9.10;4.32;;;4.00;70.60;;;;;;5156888;27;20037;-35
2022/02/06 03:37:55;;;;;;;14.10;4.57;;;4.10;70.60;;;;;;5157727;27;20023;-39
2022/02/06 03:40:27;;;;;;;11.50;5.20;;;4.10;70.70;;;;;;5156888;27;20030;-35
2022/02/06 03:43:02;;;;;;;10.30;4.25;;;4.10;70.70;;;;;;5157732;27;20042;-39
2022/02/06 03:45:37;;;;;;;10.23;4.40;;;4.10;70.70;;;;;;5157144;27;20422;-40
2022/02/06 03:48:17;;;;;;;8.30;4.28;;;4.10;70.60;;;;;;5157653;27;20037;-39
2022/02/06 03:50:51;;;;;;;11.15;4.65;;;4.10;70.70;;;;;;5157392;27;20053;-40
2022/02/06 03:53:22;;;;;;;6.70;4.32;;;4.10;70.70;;;;;;5157322;27;20027;-34
2022/02/06 03:55:49;;;;;;;8.55;4.45;;;4.10;70.50;;;;;;5157102;27;20198;-34
2022/02/06 03:58:16;;;;;;;9.70;4.55;;;4.00;70.50;;;;;;5157495;27;20107;-39
2022/02/06 04:00:42;;;;;;;11.02;4.70;;;4.00;70.60;;;;;;5156831;27;20031;-39
2022/02/06 04:03:08;;;;;;;9.43;4.90;;;4.00;71.20;;;;;;5157491;27;20307;-34
2022/02/06 04:05:34;;;;;;;7.30;4.38;;;4.00;70.60;;;;;;5156815;27;20476;-39
2022/02/06 04:08:02;;;;;;;9.30;4.57;;;4.00;70.60;;;;;;5156896;27;20122;-38
2022/02/06 04:10:34;;;;;;;12.07;4.15;;;4.00;70.50;;;;;;5157052;27;20450;-34
2022/02/06 04:13:02;;;;;;;8.75;4.75;;;3.90;70.60;;;;;;5157358;27;20035;-34
2022/02/06 04:15:37;;;;;;;13.20;4.75;;;3.90;70.70;;;;;;5156473;27;20419;-39
2022/02/06 04:18:27;;;;;;;9.43;4.72;;;3.90;70.80;;;;;;5157489;27;20039;-39
2022/02/06 04:20:53;;;;;;;9.98;4.40;;;3.80;70.80;;;;;;5157355;27;20023;-39
2022/02/06 04:23:18;;;;;;;15.35;4.90;;;3.80;71.00;;;;;;5161031;27;20066;-34
2022/02/06 04:25:44;;;;;;;8.52;4.88;;;3.80;71.00;;;;;;5160523;27;20087;-34
2022/02/06 04:28:10;;;;;;;9.73;4.78;;;3.80;71.20;;;;;;5161123;27;20423;-38
2022/02/06 04:30:35;;;;;;;9.07;4.75;;;3.90;71.30;;;;;;5159991;27;20295;-34
2022/02/06 04:33:05;;;;;;;13.65;5.15;;;3.80;71.30;;;;;;5160606;27;20034;-34
2022/02/06 04:35:34;;;;;;;11.93;5.38;;;3.80;71.30;;;;;;5160101;27;20106;-39
2022/02/06 05:27:48;;;;;;;13.23;5.93;;;3.80;72.10;;;;;;5159459;27;20033;-39
2022/02/06 05:30:02;;;;;;;11.23;6.05;;;3.80;72.00;;;;;;5155678;27;20027;-39
2022/02/06 05:32:40;;;;;;;11.32;5.15;;;3.80;71.90;;;;;;5159206;27;20406;-40
2022/02/06 05:35:07;;;;;;;10.85;5.63;;;3.80;71.90;;;;;;5159126;27;20399;-34
2022/02/06 05:37:33;;;;;;;10.07;5.40;;;3.90;71.90;;;;;;5159391;27;20023;-34
2022/02/06 05:39:59;;;;;;;12.00;5.28;;;3.90;71.90;;;;;;5158992;27;20018;-39
2022/02/06 05:42:25;;;;;;;10.77;5.60;;;3.90;71.80;;;;;;5159250;27;20465;-34
2022/02/06 05:44:55;;;;;;;10.77;5.85;;;3.90;71.80;;;;;;5158783;27;20034;-40
2022/02/06 05:47:27;;;;;;;10.75;5.60;;;3.90;71.80;;;;;;5159344;27;20042;-34
2022/02/06 05:49:53;;;;;;;8.05;5.30;;;3.90;71.70;;;;;;5158521;27;20415;-40
2022/02/06 05:52:20;;;;;;;7.70;4.85;;;3.90;71.70;;;;;;5159076;27;20026;-34
2022/02/06 05:54:46;;;;;;;8.93;5.10;;;3.90;71.70;;;;;;5158284;27;20033;-34
2022/02/06 05:57:12;;;;;;;11.45;6.68;;;3.90;71.60;;;;;;5158787;27;20027;-34
2022/02/06 05:59:38;;;;;;;11.30;5.90;;;3.90;71.60;;;;;;5158331;27;20118;-40
2022/02/06 06:02:04;;;;;;;10.70;5.38;;;3.90;71.50;;;;;;5158607;27;20034;-34
2022/02/06 06:04:29;;;;;;;13.25;5.72;;;3.90;71.50;;;;;;5158262;27;20102;-34
2022/02/06 06:06:55;;;;;;;9.25;5.45;;;3.90;71.40;;;;;;5158775;27;20370;-34
2022/02/06 06:09:21;;;;;;;10.02;5.38;;;3.80;71.30;;;;;;5157873;27;20072;-40
2022/02/06 06:11:47;;;;;;;12.38;6.38;;;3.80;71.50;;;;;;5158483;27;20367;-41
2022/02/06 06:14:12;;;;;;;11.25;5.55;;;3.80;71.60;;;;;;5158306;27;20406;-41
2022/02/06 06:16:38;;;;;;;9.52;5.38;;;3.80;71.60;;;;;;5158035;27;20429;-34
2022/02/06 06:19:05;;;;;;;9.57;5.13;;;3.90;71.70;;;;;;5158324;27;20029;-34
2022/02/06 06:21:36;;;;;;;11.20;5.43;;;3.80;71.80;;;;;;5157943;27;20019;-39
2022/02/06 06:24:02;;;;;;;10.88;5.30;;;3.90;71.80;;;;;;5158140;27;20023;-34
2022/02/06 06:26:33;;;;;;;10.15;6.57;;;4.00;71.90;;;;;;5158229;27;20038;-34
2022/02/06 06:28:59;;;;;;;9.02;5.07;;;4.00;71.90;;;;;;5158065;27;20030;-39
2022/02/06 06:31:26;;;;;;;10.05;5.35;;;4.10;71.80;;;;;;5157606;27;20031;-40
2022/02/06 06:33:52;;;;;;;9.35;4.97;;;4.10;71.60;;;;;;5157203;27;20034;-34
2022/02/06 06:36:20;;;;;;;11.82;5.28;;;4.20;71.50;;;;;;5157703;27;20021;-40
2022/02/06 06:38:48;;;;;;;15.13;5.35;;;4.20;71.30;;;;;;5158032;27;20183;-34
2022/02/06 06:41:14;;;;;;;13.05;5.63;;;4.20;71.10;;;;;;5157550;27;20035;-34
2022/02/06 06:43:40;;;;;;;10.43;5.57;;;4.30;71.20;;;;;;5157602;27;20033;-34
2022/02/06 06:46:05;;;;;;;10.00;5.05;;;4.30;71.00;;;;;;5157314;27;20314;-40
2022/02/06 06:48:31;;;;;;;12.85;5.97;;;4.40;70.90;;;;;;5158375;27;20091;-40
2022/02/06 06:50:57;;;;;;;9.50;5.65;;;4.40;70.70;;;;;;5157276;27;20122;-35
2022/02/06 06:53:22;;;;;;;15.23;7.45;;;4.40;70.60;;;;;;5157970;27;20272;-40
2022/02/06 06:55:56;;;;;;;15.52;5.72;;;4.50;70.70;;;;;;5157165;27;20121;-39
2022/02/06 06:58:32;;;;;;;17.35;5.50;;;4.50;70.50;;;;;;5157198;27;20035;-34
2022/02/06 07:03:31;;;;;;;11.43;5.43;;;4.50;70.80;;;;;;5158016;27;20475;-35
2022/02/06 07:05:56;;;;;;;9.68;5.47;;;4.50;70.10;;;;;;5157052;27;20042;-34
2022/02/06 07:08:22;;;;;;;11.20;5.50;;;4.60;70.10;;;;;;5157559;27;20046;-39
2022/02/06 07:10:49;;;;;;;9.55;5.28;;;4.60;70.00;;;;;;5157377;27;20130;-34
2022/02/06 07:13:15;;;;;;;9.15;5.60;;;4.60;69.90;;;;;;5157576;27;20039;-34
2022/02/06 07:15:41;;;;;;;11.88;5.40;;;4.60;69.90;;;;;;5157286;27;20071;-39
2022/02/06 07:18:06;;;;;;;8.93;5.70;;;4.70;69.90;;;;;;5157791;27;20367;-35
2022/02/06 07:20:34;;;;;;;13.02;6.10;;;4.70;69.80;;;;;;5156890;27;20117;-34
2022/02/06 07:23:00;;;;;;;12.18;5.20;;;4.80;69.80;;;;;;5157185;27;20031;-35
2022/02/06 07:25:28;;;;;;;11.57;5.90;;;4.80;69.60;;;;;;5156944;27;20027;-40
2022/02/06 07:27:55;;;;;;;9.43;5.30;;;4.80;69.50;;;;;;5157493;27;20042;-40
2022/02/06 07:30:21;;;;;;;13.82;5.35;;;4.90;69.40;;;;;;5157244;27;20027;-34
2022/02/06 07:32:47;;;;;;;11.57;5.90;;;4.90;69.40;;;;;;5157359;27;20083;-39
2022/02/06 07:35:14;;;;;;;9.20;5.53;;;5.00;69.30;;;;;;5157042;27;20075;-35
2022/02/06 07:37:45;;;;;;;10.45;5.93;;;5.00;69.20;;;;;;5157557;27;20027;-35
2022/02/06 07:40:12;;;;;;;9.77;5.38;;;5.10;69.20;;;;;;5157039;27;20023;-35
2022/02/06 07:42:38;;;;;;;9.90;5.18;;;5.10;69.10;;;;;;5157189;27;20035;-35
2022/02/06 07:45:05;;;;;;;11.85;5.60;;;5.20;68.90;;;;;;5156429;27;20318;-40
2022/02/06 07:47:31;;;;;;;12.20;6.38;;;5.20;68.80;;;;;;5157261;27;20049;-40
2022/02/06 07:49:58;;;;;;;8.73;5.60;;;5.30;68.70;;;;;;5156548;27;20038;-41
2022/02/06 07:52:25;;;;;;;11.10;5.93;;;5.30;68.40;;;;;;5157208;27;20110;-40
2022/02/06 07:54:52;;;;;;;16.90;6.53;;;5.30;68.00;;;;;;5157450;27;20022;-35
2022/02/06 07:57:19;;;;;;;14.98;6.47;;;5.30;68.00;;;;;;5160706;27;20031;-35
2022/02/06 07:59:45;;;;;;;14.15;6.30;;;5.30;68.00;;;;;;5160653;27;20310;-35
2022/02/06 08:02:11;;;;;;;11.93;6.22;;;5.30;68.00;;;;;;5160971;27;20031;-41
2022/02/06 08:04:37;;;;;;;11.48;6.25;;;5.30;68.10;;;;;;5142066;27;20029;-36
2022/02/06 08:07:05;;;;;;;10.27;5.75;;;5.40;68.10;;;;;;5160641;27;20067;-42
2022/02/06 08:11:59;;;;;;;13.82;6.18;;;5.40;67.90;;;;;;5160765;27;20033;-35
2022/02/06 08:17:09;;;;;;;11.73;6.15;;;5.50;67.60;;;;;;5161212;27;20041;-35
2022/02/06 08:19:35;;;;;;;13.10;5.97;;;5.50;67.60;;;;;;5160589;27;20023;-35
2022/02/06 08:22:00;;;;;;;11.20;5.90;;;5.60;67.70;;;;;;5160904;27;20311;-40
2022/02/06 08:24:26;;;;;;;13.57;6.13;;;5.60;67.50;;;;;;5160293;27;20026;-40
2022/02/06 08:26:52;;;;;;;13.93;6.43;;;5.70;67.40;;;;;;5160563;27;20041;-35
2022/02/06 08:29:18;;;;;;;9.98;6.50;;;5.70;67.30;;;;;;5160437;27;20310;-40
2022/02/06 08:31:44;;;;;;;12.27;5.97;;;5.80;67.20;;;;;;5160528;27;20030;-35
2022/02/06 08:34:09;;;;;;;12.32;5.95;;;5.80;67.20;;;;;;5160000;27;20481;-36
2022/02/06 08:36:35;;;;;;;13.80;6.70;;;5.90;67.10;;;;;;5159986;27;20029;-35
2022/02/06 08:39:01;;;;;;;12.48;5.97;;;6.00;66.90;;;;;;5160362;27;20054;-35
2022/02/06 08:41:26;;;;;;;11.43;5.70;;;6.00;66.50;;;;;;5160154;27;20023;-39
2022/02/06 08:43:52;;;;;;;11.07;6.28;;;6.00;66.40;;;;;;5160469;27;20110;-35
2022/02/06 08:46:18;;;;;;;11.63;6.30;;;6.10;66.50;;;;;;5159779;27;20034;-40
2022/02/06 08:48:44;;;;;;;12.02;5.82;;;6.20;66.50;;;;;;5160533;27;20042;-36
2022/02/06 08:51:10;;;;;;;9.65;5.47;;;6.20;66.30;;;;;;5159255;27;20311;-40
2022/02/06 08:53:36;;;;;;;12.98;6.20;;;6.30;65.60;;;;;;5160125;27;20027;-41
2022/02/06 08:56:02;;;;;;;10.32;6.03;;;6.40;65.40;;;;;;5160017;27;20379;-39
2022/02/06 08:58:27;;;;;;;12.02;6.25;;;6.40;65.30;;;;;;5160401;27;20057;-35
2022/02/06 09:00:53;;;;;;;10.45;5.55;;;6.40;65.30;;;;;;5159382;27;20434;-41
2022/02/06 09:03:20;;;;;;;9.75;5.78;;;6.40;64.80;;;;;;5160395;27;20027;-40
2022/02/06 09:05:46;;;;;;;9.63;5.40;;;6.50;64.80;;;;;;5159502;27;20027;-35
2022/02/06 09:08:12;;;;;;;9.40;5.22;;;6.50;64.70;;;;;;5158731;27;20351;-41
2022/02/06 09:10:37;;;;;;;12.38;5.45;;;6.60;64.60;;;;;;5158429;27;20106;-35
2022/02/06 09:13:04;;;;;;;11.07;5.88;;;6.70;64.30;;;;;;5159774;27;20052;-40
2022/02/06 09:15:31;;;;;;;13.73;7.30;;;6.70;64.10;;;;;;5158601;27;20022;-41
2022/02/06 09:17:57;;;;;;;12.98;6.60;;;6.70;63.50;;;;;;5159701;27;20034;-41
2022/02/06 09:20:22;;;;;;;15.52;6.60;;;6.80;63.30;;;;;;5159134;27;20098;-39
2022/02/06 09:22:49;;;;;;;8.73;5.50;;;6.90;63.50;;;;;;5159122;27;20031;-41
2022/02/06 09:25:14;;;;;;;8.65;5.40;;;6.90;63.30;;;;;;5159114;27;20041;-41
2022/02/06 09:27:42;;;;;;;10.20;5.65;;;6.90;63.10;;;;;;5159547;27;20403;-35
2022/02/06 09:30:12;;;;;;;9.90;5.28;;;7.00;62.80;;;;;;5158834;27;20035;-41
2022/02/06 09:37:32;;;;;;;9.55;5.57;;;7.10;62.10;;;;;;5159240;27;20361;-42
2022/02/06 09:39:58;;;;;;;10.85;5.45;;;7.10;61.80;;;;;;5158450;27;20034;-35
2022/02/06 09:42:26;;;;;;;15.88;7.97;;;7.20;61.60;;;;;;5159110;27;20031;-35
2022/02/06 09:44:53;;;;;;;11.00;5.20;;;7.20;61.20;;;;;;5158379;27;20050;-41
2022/02/06 09:47:25;;;;;;;8.43;5.35;;;7.20;61.00;;;;;;5158997;27;20145;-35
2022/02/06 09:49:52;;;;;;;14.65;5.53;;;7.20;60.70;;;;;;5158239;27;20071;-41
2022/02/06 09:52:25;;;;;;;8.77;5.13;;;7.20;60.70;;;;;;5159052;27;20315;-36
2022/02/06 09:55:07;;;;;;;12.60;5.47;;;7.20;60.70;;;;;;5158585;27;20086;-35
2022/02/06 09:57:50;;;;;;;10.70;5.60;;;7.30;60.80;;;;;;5159020;27;20085;-40
2022/02/06 10:00:16;;;;;;;14.65;6.05;;;7.30;60.60;;;;;;5158691;27;20037;-40
2022/02/06 10:02:47;;;;;;;10.38;5.60;;;7.30;61.00;;;;;;5158786;27;20093;-36
2022/02/06 10:05:17;;;;;;;12.30;6.20;;;7.40;61.00;;;;;;5157781;27;20460;-35
2022/02/06 10:07:57;;;;;;;9.95;5.45;;;7.40;60.90;;;;;;5158796;27;20035;-40
2022/02/06 10:10:25;;;;;;;15.13;6.10;;;7.40;60.70;;;;;;5157979;27;20034;-41
2022/02/06 10:12:53;;;;;;;15.15;7.15;;;7.40;61.00;;;;;;5158271;27;20031;-35
2022/02/06 10:15:19;;;;;;;11.30;5.32;;;7.40;60.80;;;;;;5158290;27;20433;-40
2022/02/06 10:17:47;;;;;;;11.55;5.32;;;7.40;60.60;;;;;;5158065;27;20096;-41
2022/02/06 10:20:28;;;;;;;7.95;4.75;;;7.40;60.40;;;;;;5157689;27;20031;-40
2022/02/06 10:23:00;;;;;;;;;;;7.40;60.30;;;;;;5159096;27;20042;-36
2022/02/06 10:25:26;;;;;;;9.38;5.35;;;7.40;60.80;;;;;;5157772;27;19903;-40
2022/02/06 10:28:21;;;;;;;10.38;5.32;;;7.40;60.50;;;;;;5158522;27;20087;-35
2022/02/06 10:30:43;;;;;;;11.82;5.93;;;7.40;60.40;;;;;;5156533;27;20031;-35
2022/02/06 10:33:10;;;;;;;9.65;5.15;;;7.40;60.30;;;;;;5158260;27;20435;-35
2022/02/06 10:35:42;;;;;;;9.90;5.00;;;7.40;59.90;;;;;;5157809;27;20019;-35
2022/02/06 10:38:15;;;;;;;12.45;5.50;;;7.30;59.80;;;;;;5158173;27;20113;-40
2022/02/06 10:40:41;;;;;;;12.98;5.22;;;7.40;59.90;;;;;;5157562;27;20113;-40
2022/02/06 10:43:11;;;;;;;7.88;4.90;;;7.30;59.80;;;;;;5158370;27;20063;-40
2022/02/06 10:45:38;;;;;;;11.93;5.07;;;7.30;59.90;;;;;;5157615;27;20026;-35
2022/02/06 10:48:18;;;;;;;14.25;5.88;;;7.30;60.00;;;;;;5157923;27;20030;-40
2022/02/06 10:50:44;;;;;;;9.73;4.82;;;7.20;59.80;;;;;;5157603;27;20053;-40
2022/02/06 10:53:15;;;;;;;9.95;5.25;;;7.20;59.40;;;;;;5157830;27;20026;-35
2022/02/06 10:56:10;;;;;;;7.38;4.25;;;7.20;59.40;;;;;;5157332;27;20027;-40
2022/02/06 10:58:36;;;;;;;9.20;4.82;;;7.20;59.40;;;;;;5135733;27;20162;-41
2022/02/06 11:01:21;;;;;;;13.30;6.38;;;7.20;59.50;;;;;;5157450;27;20058;-36
2022/02/06 11:03:50;;;;;;;10.45;5.63;;;7.30;59.40;;;;;;5157697;27;20351;-41
2022/02/06 11:06:42;;;;;;;13.02;5.55;;;7.30;59.40;;;;;;5156914;27;20061;-35
2022/02/06 11:09:25;;;;;;;10.55;5.35;;;7.30;59.40;;;;;;5156793;27;20355;-35
2022/02/06 11:11:50;;;;;;;16.25;5.20;;;7.30;59.50;;;;;;5157183;27;20434;-41
2022/02/06 11:14:22;;;;;;;12.02;5.40;;;7.30;59.50;;;;;;5156848;27;20142;-41
2022/02/06 11:16:49;;;;;;;9.25;5.05;;;7.40;59.10;;;;;;5157473;27;20031;-36
2022/02/06 11:19:17;;;;;;;10.75;5.18;;;7.40;59.20;;;;;;5156759;27;20023;-35
2022/02/06 11:21:43;;;;;;;9.23;4.57;;;7.40;59.20;;;;;;5156720;27;20091;-35
2022/02/06 11:24:20;;;;;;;9.88;5.18;;;7.40;58.80;;;;;;5156777;27;20110;-35
2022/02/06 11:26:47;;;;;;;9.73;4.43;;;7.40;58.20;;;;;;5156928;27;20035;-35
2022/02/06 11:29:14;;;;;;;13.80;4.25;;;7.40;58.40;;;;;;5156446;27;20037;-40
2022/02/06 11:31:40;;;;;;;12.85;4.35;;;7.40;58.40;;;;;;5161021;27;20031;-40
2022/02/06 11:34:06;;;;;;;8.02;4.10;;;7.40;58.20;;;;;;5161148;27;20030;-41
2022/02/06 11:43:43;;;;;;;10.85;4.70;;;7.40;57.80;;;;;;5142706;27;20054;-42
2022/02/06 11:45:45;;;;;;;6.35;3.95;;;7.40;57.70;;;;;;5160519;27;20117;-41
2022/02/06 11:48:16;;;;;;;7.32;4.07;;;7.40;57.40;;;;;;5161480;27;20379;-40
2022/02/06 11:50:48;;;;;;;;;;;7.40;57.50;;;;;;5161014;27;20031;-35
2022/02/06 11:53:29;;;;;;;5.57;3.25;;;7.40;57.70;;;;;;5161249;27;19915;-35
2022/02/06 11:55:56;;;;;;;;;;;7.40;57.10;;;;;;5161236;27;20029;-35
2022/02/06 11:58:31;;;;;;;6.25;3.45;;;7.40;57.50;;;;;;5161252;27;19911;-35
2022/02/06 12:01:06;;;;;;;8.68;3.97;;;7.30;56.90;;;;;;5160500;27;20467;-41
2022/02/06 12:03:50;;;;;;;8.23;3.55;;;7.30;56.40;;;;;;5161256;27;20255;-35
2022/02/06 12:06:18;;;;;;;7.97;3.08;;;7.30;56.20;;;;;;5160797;27;20110;-41
2022/02/06 12:08:58;;;;;;;8.73;4.20;;;7.30;56.40;;;;;;5160794;27;20107;-36
2022/02/06 12:11:25;;;;;;;10.30;3.78;;;7.30;56.90;;;;;;5160440;27;20031;-41
2022/02/06 12:14:12;;;;;;;7.60;3.45;;;7.30;56.00;;;;;;5160920;27;20034;-35
2022/02/06 12:16:51;;;;;;;7.68;4.32;;;7.40;55.90;;;;;;5160381;27;20311;-41
2022/02/06 12:19:31;;;;;;;9.00;4.63;;;7.40;56.20;;;;;;5160420;27;20027;-35
2022/02/06 12:22:17;;;;;;;8.38;3.92;;;7.50;56.30;;;;;;5160737;27;20038;-41
2022/02/06 12:24:44;;;;;;;5.60;3.22;;;7.50;55.90;;;;;;5159732;27;20330;-35
2022/02/06 12:27:26;;;;;;;9.13;3.45;;;7.60;55.70;;;;;;5160669;27;20041;-35
2022/02/06 12:30:00;;;;;;;6.07;3.47;;;7.60;54.70;;;;;;5159870;27;20142;-41
2022/02/06 12:32:39;;;;;;;7.57;3.58;;;7.60;54.50;;;;;;5160536;27;20027;-36
2022/02/06 12:37:55;;;;;;;12.13;4.95;;;7.60;54.50;;;;;;5160807;27;20156;-35
2022/02/06 12:40:24;;;;;;;8.23;4.03;;;7.60;55.00;;;;;;5159800;27;20030;-41
2022/02/06 12:42:58;;;;;;;9.35;3.67;;;7.80;55.10;;;;;;5158961;27;20299;-42
2022/02/06 12:45:24;;;;;;;8.98;4.03;;;7.90;54.60;;;;;;5160112;27;20031;-35
2022/02/06 12:47:57;;;;;;;8.73;3.30;;;8.00;53.90;;;;;;5160091;27;20075;-35
2022/02/06 12:50:35;;;;;;;8.50;3.40;;;8.20;53.10;;;;;;5159472;27;20030;-35
2022/02/06 12:53:05;;;;;;;9.23;3.88;;;8.30;52.90;;;;;;5160342;27;20023;-41
2022/02/06 12:55:32;;;;;;;6.63;2.78;;;8.40;52.20;;;;;;5159466;27;20026;-42
2022/02/06 12:57:59;;;;;;;10.00;3.80;;;8.60;51.60;;;;;;5160154;27;20071;-41
2022/02/06 13:00:45;;;;;;;7.10;3.78;;;8.60;51.10;;;;;;5159439;27;20039;-42
2022/02/06 13:03:22;;;;;;;6.57;3.28;;;8.70;50.00;;;;;;5160110;27;20027;-41
2022/02/06 13:05:52;;;;;;;11.00;4.30;;;8.90;49.90;;;;;;5158559;27;20049;-35
2022/02/06 13:08:18;;;;;;;5.28;2.58;;;8.90;49.20;;;;;;5141329;27;20082;-40
2022/02/06 13:11:19;;;;;;;6.00;3.00;;;8.90;47.90;;;;;;5159085;27;20070;-40
2022/02/06 13:13:59;;;;;;;4.80;2.10;;;8.90;47.10;;;;;;5159750;27;20321;-35
2022/02/06 13:16:47;;;;;;;19.23;8.77;;;8.90;47.30;;;;;;5159077;27;20026;-36
2022/02/06 13:30:33;;;;;;;7.00;3.55;;;8.80;47.10;;;;;;5159085;27;20122;-35
2022/02/06 13:33:10;;;;;;;8.20;3.10;;;8.70;47.00;;;;;;5159574;27;20031;-40
2022/02/06 13:36:25;;;;;;;7.25;2.80;;;8.60;47.20;;;;;;5158852;27;20047;-40
2022/02/06 13:38:32;;;;;;;6.75;2.88;;;8.50;47.50;;;;;;5150413;27;20038;-36
2022/02/06 13:41:00;;;;;;;10.55;3.15;;;8.30;47.30;;;;;;5159124;27;20027;-40
2022/02/06 13:43:26;;;;;;;7.50;3.50;;;8.20;47.80;;;;;;5159364;27;20038;-35
2022/02/06 13:45:57;;;;;;;10.07;6.20;;;8.10;48.30;;;;;;5158583;27;20138;-35
2022/02/06 13:48:24;;;;;;;12.60;4.13;;;8.00;48.50;;;;;;5159374;27;20467;-35
2022/02/06 13:50:55;;;;;;;10.82;3.60;;;8.00;48.60;;;;;;5158462;27;20031;-36
2022/02/06 13:53:24;;;;;;;7.50;3.35;;;7.90;48.60;;;;;;5158949;27;20061;-40
2022/02/06 13:55:57;;;;;;;11.18;3.95;;;7.80;48.50;;;;;;5158405;27;20054;-40
2022/02/06 13:58:25;;;;;;;12.10;4.45;;;7.70;48.80;;;;;;5159183;27;20030;-35
2022/02/06 14:00:59;;;;;;;9.52;3.75;;;7.60;48.90;;;;;;5158570;27;20049;-35
2022/02/06 14:03:48;;;;;;;8.30;4.65;;;7.50;49.10;;;;;;5158985;27;20326;-41
2022/02/06 14:06:20;;;;;;;16.35;5.38;;;7.40;49.50;;;;;;5139749;27;20034;-35
2022/02/06 14:09:07;;;;;;;15.30;5.70;;;7.30;49.90;;;;;;5158058;27;20442;-35
2022/02/06 14:11:34;;;;;;;10.07;4.80;;;7.20;50.10;;;;;;5157865;27;20031;-40
2022/02/06 14:14:23;;;;;;;9.63;3.72;;;7.10;50.30;;;;;;5157977;27;20029;-35
2022/02/06 14:16:55;;;;;;;7.55;3.45;;;7.10;50.30;;;;;;5158562;27;20352;-36
2022/02/06 14:19:42;;;;;;;11.23;4.38;;;7.00;50.60;;;;;;5157777;27;20054;-35
2022/02/06 14:22:10;;;;;;;9.70;3.70;;;7.00;50.80;;;;;;5158403;27;20062;-41
2022/02/06 14:24:56;;;;;;;9.27;4.30;;;6.90;51.10;;;;;;5157721;27;20046;-35
2022/02/06 14:27:29;;;;;;;8.52;3.80;;;6.90;51.50;;;;;;5157837;27;20418;-36
2022/02/06 14:30:21;;;;;;;11.35;4.13;;;6.90;51.60;;;;;;5157368;27;20414;-41
2022/02/06 14:32:59;;;;;;;6.13;3.60;;;6.90;52.00;;;;;;5146928;27;20087;-35
2022/02/06 14:35:55;;;;;;;11.63;5.20;;;6.80;52.10;;;;;;5157312;27;20015;-35
2022/02/06 14:38:44;;;;;;;12.30;4.82;;;6.80;52.40;;;;;;5158210;27;20318;-35
2022/02/06 14:41:23;;;;;;;8.65;4.47;;;6.70;52.30;;;;;;5157439;27;20056;-35
2022/02/06 14:43:58;;;;;;;9.05;3.70;;;6.70;52.40;;;;;;5157858;27;20035;-40
2022/02/06 14:46:29;;;;;;;10.75;5.00;;;6.70;52.70;;;;;;5157689;27;20038;-41
2022/02/06 14:48:56;;;;;;;8.32;4.25;;;6.60;53.00;;;;;;5140069;27;20026;-35
2022/02/06 14:51:24;;;;;;;7.55;4.95;;;6.60;53.50;;;;;;5157242;27;20031;-41
2022/02/06 14:53:55;;;;;;;10.30;5.10;;;6.60;53.80;;;;;;5157798;27;20026;-35
2022/02/06 14:56:21;;;;;;;13.30;5.28;;;6.50;54.20;;;;;;5157172;27;20022;-41
2022/02/06 14:58:46;;;;;;;10.95;5.03;;;6.50;54.30;;;;;;5157651;27;20018;-35
2022/02/06 15:01:12;;;;;;;14.95;5.78;;;6.40;54.60;;;;;;5157554;27;20027;-41
2022/02/06 15:03:38;;;;;;;11.85;6.13;;;6.40;54.90;;;;;;5158069;27;20111;-40
2022/02/06 15:06:04;;;;;;;14.40;5.28;;;6.40;55.40;;;;;;5156673;27;20029;-37
2022/02/06 15:08:29;;;;;;;16.30;7.93;;;6.30;55.70;;;;;;5157805;27;20099;-40
2022/02/06 15:10:55;;;;;;;12.57;6.15;;;6.20;56.00;;;;;;5157254;27;20028;-40
2022/02/06 15:13:21;;;;;;;12.52;5.90;;;6.20;56.10;;;;;;5157749;27;20029;-40
2022/02/06 15:15:56;;;;;;;14.77;7.00;;;6.20;56.50;;;;;;5157040;27;20102;-36
2022/02/06 15:18:24;;;;;;;13.65;6.70;;;6.20;56.60;;;;;;5157848;27;20026;-36
2022/02/06 15:20:53;;;;;;;17.50;8.20;;;6.10;56.70;;;;;;5157407;27;20030;-35
2022/02/06 15:23:21;;;;;;;17.63;8.45;;;6.10;56.90;;;;;;5157541;27;20031;-40
2022/02/06 15:25:47;;;;;;;11.70;6.28;;;6.10;57.20;;;;;;5157190;27;20407;-41
2022/02/06 15:28:13;;;;;;;11.57;6.70;;;6.00;57.30;;;;;;5157907;27;20030;-40
2022/02/06 15:30:39;;;;;;;14.35;7.05;;;6.00;57.60;;;;;;5156890;27;20027;-37
2022/02/06 15:33:05;;;;;;;14.15;7.43;;;5.90;57.70;;;;;;5157496;27;20019;-35
2022/02/06 15:35:35;;;;;;;14.27;8.60;;;5.90;57.90;;;;;;5156948;27;20598;-35
2022/02/06 15:38:03;;;;;;;13.02;7.05;;;5.90;58.10;;;;;;5157486;27;20023;-35
2022/02/06 15:40:31;;;;;;;17.20;6.93;;;5.80;58.20;;;;;;5156958;27;20031;-35
2022/02/06 15:42:57;;;;;;;12.63;7.75;;;5.80;58.40;;;;;;5157336;27;20039;-40
2022/02/06 15:45:23;;;;;;;17.95;9.13;;;5.70;58.50;;;;;;5156547;27;20027;-35
2022/02/06 15:47:48;;;;;;;14.20;7.13;;;5.70;58.70;;;;;;5157306;27;20038;-35